sensor_id;sensor_type;location;lat;lon;timestamp;temperature;humidity
23143;DHT22;11740;51.168;4.112;2023-05-27T00:00:15;14.00;1.00
23143;DHT22;11740;51.168;4.112;2023-05-27T00:02:42;14.00;1.00
23143;DHT22;11740;51.168;4.112;2023-05-27T00:05:09;13.90;1.00
23143;DHT22;11740;51.168;4.112;2023-05-27T00:07:36;13.80;1.00
23143;DHT22;11740;51.168;4.112;2023-05-27T00:10:03;13.70;1.00
23143;DHT22;11740;51.168;4.112;2023-05-27T00:12:30;13.70;1.00
23143;DHT22;11740;51.168;4.112;2023-05-27T00:14:57;13.60;1.00
23143;DHT22;11740;51.168;4.112;2023-05-27T00:17:23;13.60;1.00
23143;DHT22;11740;51.168;4.112;2023-05-27T00:19:51;13.60;1.00
23143;DHT22;11740;51.168;4.112;2023-05-27T00:22:20;13.60;1.00
23143;DHT22;11740;51.168;4.112;2023-05-27T00:24:47;13.50;1.00
23143;DHT22;11740;51.168;4.112;2023-05-27T00:27:14;13.50;1.00
23143;DHT22;11740;51.168;4.112;2023-05-27T00:29:41;13.40;1.00
23143;DHT22;11740;51.168;4.112;2023-05-27T00:32:08;13.40;1.00
23143;DHT22;11740;51.168;4.112;2023-05-27T00:34:35;13.30;1.00
23143;DHT22;11740;51.168;4.112;2023-05-27T00:37:02;13.20;1.00
23143;DHT22;11740;51.168;4.112;2023-05-27T00:39:31;13.20;1.00
23143;DHT22;11740;51.168;4.112;2023-05-27T00:41:57;13.10;1.00
23143;DHT22;11740;51.168;4.112;2023-05-27T00:44:24;13.10;1.00
23143;DHT22;11740;51.168;4.112;2023-05-27T00:46:51;13.00;1.00
23143;DHT22;11740;51.168;4.112;2023-05-27T00:49:18;13.00;1.00
23143;DHT22;11740;51.168;4.112;2023-05-27T00:51:45;13.00;1.00
23143;DHT22;11740;51.168;4.112;2023-05-27T00:54:12;12.90;1.00
23143;DHT22;11740;51.168;4.112;2023-05-27T00:56:39;12.90;1.00
23143;DHT22;11740;51.168;4.112;2023-05-27T00:59:06;12.90;1.00
23143;DHT22;11740;51.168;4.112;2023-05-27T01:01:33;12.80;1.00
23143;DHT22;11740;51.168;4.112;2023-05-27T01:04:03;12.80;1.00
23143;DHT22;11740;51.168;4.112;2023-05-27T01:12:13;12.70;1.00
23143;DHT22;11740;51.168;4.112;2023-05-27T01:15:00;12.60;1.00
23143;DHT22;11740;51.168;4.112;2023-05-27T01:17:29;12.60;1.00
23143;DHT22;11740;51.168;4.112;2023-05-27T01:19:58;12.50;1.00
23143;DHT22;11740;51.168;4.112;2023-05-27T01:22:29;12.50;1.00
23143;DHT22;11740;51.168;4.112;2023-05-27T01:24:57;12.50;1.00
23143;DHT22;11740;51.168;4.112;2023-05-27T01:27:24;12.40;1.00
23143;DHT22;11740;51.168;4.112;2023-05-27T01:29:54;12.30;1.00
23143;DHT22;11740;51.168;4.112;2023-05-27T01:32:34;12.30;1.00
23143;DHT22;11740;51.168;4.112;2023-05-27T01:35:14;12.30;1.00
23143;DHT22;11740;51.168;4.112;2023-05-27T01:37:44;12.30;1.00
23143;DHT22;11740;51.168;4.112;2023-05-27T01:40:13;12.20;1.00
23143;DHT22;11740;51.168;4.112;2023-05-27T01:42:40;12.20;1.00
23143;DHT22;11740;51.168;4.112;2023-05-27T01:45:08;12.10;1.00
23143;DHT22;11740;51.168;4.112;2023-05-27T01:47:36;12.10;1.00
23143;DHT22;11740;51.168;4.112;2023-05-27T01:50:03;12.10;1.00
23143;DHT22;11740;51.168;4.112;2023-05-27T01:52:30;12.00;1.00
23143;DHT22;11740;51.168;4.112;2023-05-27T01:54:57;12.00;1.00
23143;DHT22;11740;51.168;4.112;2023-05-27T01:57:24;11.90;1.00
23143;DHT22;11740;51.168;4.112;2023-05-27T01:59:51;11.90;1.00
23143;DHT22;11740;51.168;4.112;2023-05-27T02:02:18;11.90;1.00
23143;DHT22;11740;51.168;4.112;2023-05-27T02:04:45;11.80;1.00
23143;DHT22;11740;51.168;4.112;2023-05-27T02:07:12;11.80;1.00
23143;DHT22;11740;51.168;4.112;2023-05-27T02:09:39;11.80;1.00
23143;DHT22;11740;51.168;4.112;2023-05-27T02:12:06;11.70;1.00
23143;DHT22;11740;51.168;4.112;2023-05-27T02:14:33;11.70;1.00
23143;DHT22;11740;51.168;4.112;2023-05-27T02:17:00;11.60;1.00
23143;DHT22;11740;51.168;4.112;2023-05-27T02:19:30;11.60;1.00
23143;DHT22;11740;51.168;4.112;2023-05-27T02:21:57;11.60;1.00
23143;DHT22;11740;51.168;4.112;2023-05-27T02:24:24;11.60;1.00
23143;DHT22;11740;51.168;4.112;2023-05-27T02:26:51;11.50;1.60
23143;DHT22;11740;51.168;4.112;2023-05-27T02:29:17;11.50;1.00
23143;DHT22;11740;51.168;4.112;2023-05-27T02:31:44;11.40;1.00
23143;DHT22;11740;51.168;4.112;2023-05-27T02:34:11;11.40;1.00
23143;DHT22;11740;51.168;4.112;2023-05-27T02:36:38;11.40;1.00
23143;DHT22;11740;51.168;4.112;2023-05-27T02:39:05;11.40;2.80
23143;DHT22;11740;51.168;4.112;2023-05-27T02:41:32;11.30;1.00
23143;DHT22;11740;51.168;4.112;2023-05-27T02:43:59;11.30;1.00
23143;DHT22;11740;51.168;4.112;2023-05-27T02:46:26;11.30;3.70
23143;DHT22;11740;51.168;4.112;2023-05-27T02:48:53;11.20;14.30
23143;DHT22;11740;51.168;4.112;2023-05-27T02:51:21;11.20;8.40
23143;DHT22;11740;51.168;4.112;2023-05-27T02:53:49;11.10;18.20
23143;DHT22;11740;51.168;4.112;2023-05-27T02:56:17;11.10;22.30
23143;DHT22;11740;51.168;4.112;2023-05-27T02:58:44;11.00;26.10
23143;DHT22;11740;51.168;4.112;2023-05-27T03:01:11;11.00;30.30
23143;DHT22;11740;51.168;4.112;2023-05-27T03:03:38;11.00;30.70
23143;DHT22;11740;51.168;4.112;2023-05-27T03:06:05;10.90;38.30
23143;DHT22;11740;51.168;4.112;2023-05-27T03:08:32;10.90;43.10
23143;DHT22;11740;51.168;4.112;2023-05-27T03:10:59;10.80;39.50
23143;DHT22;11740;51.168;4.112;2023-05-27T03:13:26;10.80;50.40
23143;DHT22;11740;51.168;4.112;2023-05-27T03:15:52;10.80;67.20
23143;DHT22;11740;51.168;4.112;2023-05-27T03:18:21;10.70;67.80
23143;DHT22;11740;51.168;4.112;2023-05-27T03:20:48;10.70;77.90
23143;DHT22;11740;51.168;4.112;2023-05-27T03:23:15;10.70;76.70
23143;DHT22;11740;51.168;4.112;2023-05-27T03:25:42;10.60;88.70
23143;DHT22;11740;51.168;4.112;2023-05-27T03:28:09;10.60;97.60
23143;DHT22;11740;51.168;4.112;2023-05-27T03:30:36;10.50;99.90
23143;DHT22;11740;51.168;4.112;2023-05-27T03:33:04;10.50;99.90
23143;DHT22;11740;51.168;4.112;2023-05-27T03:35:31;10.50;99.90
23143;DHT22;11740;51.168;4.112;2023-05-27T03:37:58;10.50;99.90
23143;DHT22;11740;51.168;4.112;2023-05-27T03:40:25;10.40;99.90
23143;DHT22;11740;51.168;4.112;2023-05-27T03:42:52;10.40;99.90
23143;DHT22;11740;51.168;4.112;2023-05-27T03:45:20;10.40;99.90
23143;DHT22;11740;51.168;4.112;2023-05-27T03:47:46;10.30;99.90
23143;DHT22;11740;51.168;4.112;2023-05-27T03:50:13;10.40;99.90
23143;DHT22;11740;51.168;4.112;2023-05-27T03:52:40;10.30;99.90
23143;DHT22;11740;51.168;4.112;2023-05-27T03:55:07;10.30;99.90
23143;DHT22;11740;51.168;4.112;2023-05-27T03:57:34;10.30;99.90
23143;DHT22;11740;51.168;4.112;2023-05-27T04:00:01;10.20;99.90
23143;DHT22;11740;51.168;4.112;2023-05-27T04:02:33;10.20;99.90
23143;DHT22;11740;51.168;4.112;2023-05-27T04:05:00;10.20;99.90
23143;DHT22;11740;51.168;4.112;2023-05-27T04:07:28;10.20;99.90
23143;DHT22;11740;51.168;4.112;2023-05-27T04:09:55;10.20;99.90
23143;DHT22;11740;51.168;4.112;2023-05-27T04:12:22;10.10;99.90
23143;DHT22;11740;51.168;4.112;2023-05-27T04:14:49;10.10;99.90
23143;DHT22;11740;51.168;4.112;2023-05-27T04:17:16;10.10;99.90
23143;DHT22;11740;51.168;4.112;2023-05-27T04:19:43;10.10;99.90
23143;DHT22;11740;51.168;4.112;2023-05-27T04:22:11;10.10;99.90
23143;DHT22;11740;51.168;4.112;2023-05-27T04:24:37;10.00;99.90
23143;DHT22;11740;51.168;4.112;2023-05-27T04:27:05;10.00;99.90
23143;DHT22;11740;51.168;4.112;2023-05-27T04:29:33;9.90;99.90
23143;DHT22;11740;51.168;4.112;2023-05-27T04:32:00;10.00;99.90
23143;DHT22;11740;51.168;4.112;2023-05-27T04:34:27;10.00;99.90
23143;DHT22;11740;51.168;4.112;2023-05-27T04:36:54;10.00;99.90
23143;DHT22;11740;51.168;4.112;2023-05-27T04:39:22;10.00;99.90
23143;DHT22;11740;51.168;4.112;2023-05-27T04:41:49;10.00;99.90
23143;DHT22;11740;51.168;4.112;2023-05-27T04:44:17;9.90;99.90
23143;DHT22;11740;51.168;4.112;2023-05-27T04:46:44;10.00;99.90
23143;DHT22;11740;51.168;4.112;2023-05-27T04:49:11;10.00;99.90
23143;DHT22;11740;51.168;4.112;2023-05-27T04:51:37;10.00;99.90
23143;DHT22;11740;51.168;4.112;2023-05-27T04:54:04;10.00;99.90
23143;DHT22;11740;51.168;4.112;2023-05-27T04:56:32;10.00;99.90
23143;DHT22;11740;51.168;4.112;2023-05-27T04:58:59;10.00;99.90
23143;DHT22;11740;51.168;4.112;2023-05-27T05:01:26;10.00;99.90
23143;DHT22;11740;51.168;4.112;2023-05-27T05:03:55;10.00;99.90
23143;DHT22;11740;51.168;4.112;2023-05-27T05:06:40;10.00;99.90
23143;DHT22;11740;51.168;4.112;2023-05-27T05:09:07;10.10;99.90
23143;DHT22;11740;51.168;4.112;2023-05-27T05:11:35;10.10;99.90
23143;DHT22;11740;51.168;4.112;2023-05-27T05:14:02;10.10;99.90
23143;DHT22;11740;51.168;4.112;2023-05-27T05:16:29;10.10;99.90
23143;DHT22;11740;51.168;4.112;2023-05-27T05:18:56;10.10;99.90
23143;DHT22;11740;51.168;4.112;2023-05-27T05:21:23;10.10;99.90
23143;DHT22;11740;51.168;4.112;2023-05-27T05:23:50;10.10;99.90
23143;DHT22;11740;51.168;4.112;2023-05-27T05:26:17;10.20;99.90
23143;DHT22;11740;51.168;4.112;2023-05-27T05:28:44;10.20;99.90
23143;DHT22;11740;51.168;4.112;2023-05-27T05:31:11;10.20;99.90
23143;DHT22;11740;51.168;4.112;2023-05-27T05:33:37;10.20;99.90
23143;DHT22;11740;51.168;4.112;2023-05-27T05:36:04;10.20;99.90
23143;DHT22;11740;51.168;4.112;2023-05-27T05:38:31;10.30;99.90
23143;DHT22;11740;51.168;4.112;2023-05-27T05:40:59;10.30;99.90
23143;DHT22;11740;51.168;4.112;2023-05-27T05:43:26;10.30;99.90
23143;DHT22;11740;51.168;4.112;2023-05-27T05:45:53;10.30;99.90
23143;DHT22;11740;51.168;4.112;2023-05-27T05:48:20;10.40;99.90
23143;DHT22;11740;51.168;4.112;2023-05-27T05:50:47;10.40;99.90
23143;DHT22;11740;51.168;4.112;2023-05-27T05:53:14;10.40;99.90
23143;DHT22;11740;51.168;4.112;2023-05-27T05:55:41;10.50;99.90
23143;DHT22;11740;51.168;4.112;2023-05-27T05:58:08;10.50;99.90
23143;DHT22;11740;51.168;4.112;2023-05-27T06:00:35;10.50;99.90
23143;DHT22;11740;51.168;4.112;2023-05-27T06:03:02;10.50;99.90
23143;DHT22;11740;51.168;4.112;2023-05-27T06:05:29;10.60;99.90
23143;DHT22;11740;51.168;4.112;2023-05-27T06:07:56;10.60;99.90
23143;DHT22;11740;51.168;4.112;2023-05-27T06:10:22;10.60;99.90
23143;DHT22;11740;51.168;4.112;2023-05-27T06:12:49;10.70;99.90
23143;DHT22;11740;51.168;4.112;2023-05-27T06:15:16;10.70;99.90
23143;DHT22;11740;51.168;4.112;2023-05-27T06:17:43;10.80;99.90
23143;DHT22;11740;51.168;4.112;2023-05-27T06:20:10;10.80;99.90
23143;DHT22;11740;51.168;4.112;2023-05-27T06:22:37;10.80;99.90
23143;DHT22;11740;51.168;4.112;2023-05-27T06:25:04;10.90;99.90
23143;DHT22;11740;51.168;4.112;2023-05-27T06:27:31;10.90;99.90
23143;DHT22;11740;51.168;4.112;2023-05-27T06:29:58;11.00;99.90
23143;DHT22;11740;51.168;4.112;2023-05-27T06:32:25;11.00;99.90
23143;DHT22;11740;51.168;4.112;2023-05-27T06:34:52;11.10;99.90
23143;DHT22;11740;51.168;4.112;2023-05-27T06:37:19;11.10;99.90
23143;DHT22;11740;51.168;4.112;2023-05-27T06:39:46;11.10;99.90
23143;DHT22;11740;51.168;4.112;2023-05-27T06:42:13;11.10;99.90
23143;DHT22;11740;51.168;4.112;2023-05-27T06:44:40;11.20;99.90
23143;DHT22;11740;51.168;4.112;2023-05-27T06:47:07;11.30;99.90
23143;DHT22;11740;51.168;4.112;2023-05-27T06:49:34;11.30;99.90
23143;DHT22;11740;51.168;4.112;2023-05-27T06:52:01;11.40;99.90
23143;DHT22;11740;51.168;4.112;2023-05-27T06:54:27;11.40;99.90
23143;DHT22;11740;51.168;4.112;2023-05-27T06:56:54;11.40;99.90
23143;DHT22;11740;51.168;4.112;2023-05-27T06:59:21;11.50;99.90
23143;DHT22;11740;51.168;4.112;2023-05-27T07:01:48;11.50;99.90
23143;DHT22;11740;51.168;4.112;2023-05-27T07:04:15;11.60;99.90
23143;DHT22;11740;51.168;4.112;2023-05-27T07:06:42;11.60;99.90
23143;DHT22;11740;51.168;4.112;2023-05-27T07:09:09;11.60;99.90
23143;DHT22;11740;51.168;4.112;2023-05-27T07:11:37;11.70;99.90
23143;DHT22;11740;51.168;4.112;2023-05-27T07:14:04;11.70;99.90
23143;DHT22;11740;51.168;4.112;2023-05-27T07:16:31;11.80;99.90
23143;DHT22;11740;51.168;4.112;2023-05-27T07:18:58;11.80;99.90
23143;DHT22;11740;51.168;4.112;2023-05-27T07:21:25;11.90;99.90
23143;DHT22;11740;51.168;4.112;2023-05-27T07:23:52;11.90;99.90
23143;DHT22;11740;51.168;4.112;2023-05-27T07:26:19;11.90;99.90
23143;DHT22;11740;51.168;4.112;2023-05-27T07:28:46;11.90;99.90
23143;DHT22;11740;51.168;4.112;2023-05-27T07:31:13;11.90;99.90
23143;DHT22;11740;51.168;4.112;2023-05-27T07:33:40;12.00;99.90
23143;DHT22;11740;51.168;4.112;2023-05-27T07:36:07;12.10;99.90
23143;DHT22;11740;51.168;4.112;2023-05-27T07:38:34;12.10;99.90
23143;DHT22;11740;51.168;4.112;2023-05-27T07:41:01;12.30;99.90
23143;DHT22;11740;51.168;4.112;2023-05-27T07:43:28;12.30;99.90
23143;DHT22;11740;51.168;4.112;2023-05-27T07:45:55;12.40;99.90
23143;DHT22;11740;51.168;4.112;2023-05-27T07:48:22;12.40;99.90
23143;DHT22;11740;51.168;4.112;2023-05-27T07:50:48;12.50;99.90
23143;DHT22;11740;51.168;4.112;2023-05-27T07:53:15;12.50;99.90
23143;DHT22;11740;51.168;4.112;2023-05-27T07:55:42;12.60;99.90
23143;DHT22;11740;51.168;4.112;2023-05-27T07:58:09;12.70;99.90
23143;DHT22;11740;51.168;4.112;2023-05-27T08:00:36;12.90;99.90
23143;DHT22;11740;51.168;4.112;2023-05-27T08:03:03;13.00;99.90
23143;DHT22;11740;51.168;4.112;2023-05-27T08:05:30;13.10;99.90
23143;DHT22;11740;51.168;4.112;2023-05-27T08:07:57;13.30;99.90
23143;DHT22;11740;51.168;4.112;2023-05-27T08:10:24;13.60;99.90
23143;DHT22;11740;51.168;4.112;2023-05-27T08:12:51;13.80;99.90
23143;DHT22;11740;51.168;4.112;2023-05-27T08:15:18;13.90;99.90
23143;DHT22;11740;51.168;4.112;2023-05-27T08:17:45;14.10;99.90
23143;DHT22;11740;51.168;4.112;2023-05-27T08:20:12;14.40;99.90
23143;DHT22;11740;51.168;4.112;2023-05-27T08:22:40;14.70;99.90
23143;DHT22;11740;51.168;4.112;2023-05-27T08:25:08;15.00;99.90
23143;DHT22;11740;51.168;4.112;2023-05-27T08:30:16;15.30;99.90
23143;DHT22;11740;51.168;4.112;2023-05-27T08:32:43;15.60;99.90
23143;DHT22;11740;51.168;4.112;2023-05-27T08:35:10;15.90;99.90
23143;DHT22;11740;51.168;4.112;2023-05-27T08:37:38;16.10;99.90
23143;DHT22;11740;51.168;4.112;2023-05-27T08:40:06;16.20;99.90
23143;DHT22;11740;51.168;4.112;2023-05-27T08:42:36;16.30;91.90
23143;DHT22;11740;51.168;4.112;2023-05-27T08:45:03;16.40;88.20
23143;DHT22;11740;51.168;4.112;2023-05-27T08:47:30;16.50;83.20
23143;DHT22;11740;51.168;4.112;2023-05-27T08:49:58;16.50;73.70
23143;DHT22;11740;51.168;4.112;2023-05-27T08:52:26;16.60;72.60
23143;DHT22;11740;51.168;4.112;2023-05-27T08:54:54;16.80;73.80
23143;DHT22;11740;51.168;4.112;2023-05-27T08:57:26;16.90;66.30
23143;DHT22;11740;51.168;4.112;2023-05-27T08:59:55;17.10;80.30
23143;DHT22;11740;51.168;4.112;2023-05-27T09:02:22;17.30;73.70
23143;DHT22;11740;51.168;4.112;2023-05-27T09:04:49;17.20;56.40
23143;DHT22;11740;51.168;4.112;2023-05-27T09:07:19;17.10;45.20
23143;DHT22;11740;51.168;4.112;2023-05-27T09:09:56;17.30;48.70
23143;DHT22;11740;51.168;4.112;2023-05-27T09:12:24;17.20;37.30
23143;DHT22;11740;51.168;4.112;2023-05-27T09:14:52;17.40;41.50
23143;DHT22;11740;51.168;4.112;2023-05-27T09:17:22;17.50;52.40
23143;DHT22;11740;51.168;4.112;2023-05-27T09:19:53;17.70;46.60
23143;DHT22;11740;51.168;4.112;2023-05-27T09:22:25;17.80;43.30
23143;DHT22;11740;51.168;4.112;2023-05-27T09:24:55;17.90;35.10
23143;DHT22;11740;51.168;4.112;2023-05-27T09:27:26;17.90;37.80
23143;DHT22;11740;51.168;4.112;2023-05-27T09:29:53;18.00;36.90
23143;DHT22;11740;51.168;4.112;2023-05-27T09:32:24;18.00;37.40
23143;DHT22;11740;51.168;4.112;2023-05-27T09:34:52;18.30;40.60
23143;DHT22;11740;51.168;4.112;2023-05-27T09:37:19;18.30;29.30
23143;DHT22;11740;51.168;4.112;2023-05-27T09:39:47;18.30;27.20
23143;DHT22;11740;51.168;4.112;2023-05-27T09:42:16;18.30;26.30
23143;DHT22;11740;51.168;4.112;2023-05-27T09:44:44;18.50;23.60
23143;DHT22;11740;51.168;4.112;2023-05-27T09:47:15;18.60;24.80
23143;DHT22;11740;51.168;4.112;2023-05-27T09:49:43;18.70;17.80
23143;DHT22;11740;51.168;4.112;2023-05-27T09:52:16;18.70;20.20
23143;DHT22;11740;51.168;4.112;2023-05-27T09:54:46;18.80;12.40
23143;DHT22;11740;51.168;4.112;2023-05-27T09:57:13;18.80;16.80
23143;DHT22;11740;51.168;4.112;2023-05-27T09:59:40;18.90;10.30
23143;DHT22;11740;51.168;4.112;2023-05-27T10:02:07;18.90;8.20
23143;DHT22;11740;51.168;4.112;2023-05-27T10:04:34;18.90;12.50
23143;DHT22;11740;51.168;4.112;2023-05-27T10:07:01;18.90;9.40
23143;DHT22;11740;51.168;4.112;2023-05-27T10:09:28;19.00;10.80
23143;DHT22;11740;51.168;4.112;2023-05-27T10:11:55;19.10;9.20
23143;DHT22;11740;51.168;4.112;2023-05-27T10:14:22;19.20;8.40
23143;DHT22;11740;51.168;4.112;2023-05-27T10:16:53;19.30;8.30
23143;DHT22;11740;51.168;4.112;2023-05-27T10:19:22;19.40;7.70
23143;DHT22;11740;51.168;4.112;2023-05-27T10:21:49;19.40;3.10
23143;DHT22;11740;51.168;4.112;2023-05-27T10:24:16;19.50;6.10
23143;DHT22;11740;51.168;4.112;2023-05-27T10:26:44;19.60;9.20
23143;DHT22;11740;51.168;4.112;2023-05-27T10:29:12;19.70;5.50
23143;DHT22;11740;51.168;4.112;2023-05-27T10:31:46;19.70;1.00
23143;DHT22;11740;51.168;4.112;2023-05-27T10:34:19;19.70;1.00
23143;DHT22;11740;51.168;4.112;2023-05-27T10:36:47;19.80;1.00
23143;DHT22;11740;51.168;4.112;2023-05-27T10:39:25;19.80;1.00
23143;DHT22;11740;51.168;4.112;2023-05-27T10:41:55;19.90;1.00
23143;DHT22;11740;51.168;4.112;2023-05-27T10:44:27;20.00;1.00
23143;DHT22;11740;51.168;4.112;2023-05-27T10:47:02;20.00;1.00
23143;DHT22;11740;51.168;4.112;2023-05-27T10:49:34;20.20;1.00
23143;DHT22;11740;51.168;4.112;2023-05-27T10:52:09;20.20;1.00
23143;DHT22;11740;51.168;4.112;2023-05-27T10:54:40;20.40;1.00
23143;DHT22;11740;51.168;4.112;2023-05-27T10:57:09;20.50;1.00
23143;DHT22;11740;51.168;4.112;2023-05-27T10:59:39;20.60;1.00
23143;DHT22;11740;51.168;4.112;2023-05-27T11:02:09;20.80;1.00
23143;DHT22;11740;51.168;4.112;2023-05-27T11:04:38;20.70;1.00
23143;DHT22;11740;51.168;4.112;2023-05-27T11:07:05;20.90;1.00
23143;DHT22;11740;51.168;4.112;2023-05-27T11:09:48;21.00;1.00
23143;DHT22;11740;51.168;4.112;2023-05-27T11:12:18;21.00;1.00
23143;DHT22;11740;51.168;4.112;2023-05-27T11:14:51;21.10;1.00
23143;DHT22;11740;51.168;4.112;2023-05-27T11:17:19;21.20;1.00
23143;DHT22;11740;51.168;4.112;2023-05-27T11:19:46;21.30;1.00
23143;DHT22;11740;51.168;4.112;2023-05-27T11:22:14;21.50;1.00
23143;DHT22;11740;51.168;4.112;2023-05-27T11:24:41;21.60;1.00
23143;DHT22;11740;51.168;4.112;2023-05-27T11:27:08;21.80;1.00
23143;DHT22;11740;51.168;4.112;2023-05-27T11:29:49;21.80;1.00
23143;DHT22;11740;51.168;4.112;2023-05-27T11:32:18;21.80;1.00
23143;DHT22;11740;51.168;4.112;2023-05-27T11:34:45;22.10;1.00
23143;DHT22;11740;51.168;4.112;2023-05-27T11:37:13;22.20;1.00
23143;DHT22;11740;51.168;4.112;2023-05-27T11:39:51;22.10;1.00
23143;DHT22;11740;51.168;4.112;2023-05-27T11:42:22;22.00;1.00
23143;DHT22;11740;51.168;4.112;2023-05-27T11:44:50;22.30;1.00
23143;DHT22;11740;51.168;4.112;2023-05-27T11:47:18;22.50;1.00
23143;DHT22;11740;51.168;4.112;2023-05-27T11:49:46;22.60;1.00
23143;DHT22;11740;51.168;4.112;2023-05-27T11:52:15;22.70;1.00
23143;DHT22;11740;51.168;4.112;2023-05-27T11:54:42;22.80;1.00
23143;DHT22;11740;51.168;4.112;2023-05-27T11:57:15;22.90;1.00
23143;DHT22;11740;51.168;4.112;2023-05-27T11:59:42;22.90;1.00
23143;DHT22;11740;51.168;4.112;2023-05-27T12:02:09;23.00;1.00
23143;DHT22;11740;51.168;4.112;2023-05-27T12:04:36;23.10;1.00
23143;DHT22;11740;51.168;4.112;2023-05-27T12:07:03;23.30;1.00
23143;DHT22;11740;51.168;4.112;2023-05-27T12:09:45;23.20;1.00
23143;DHT22;11740;51.168;4.112;2023-05-27T12:12:12;23.40;1.00
23143;DHT22;11740;51.168;4.112;2023-05-27T12:14:39;23.50;1.00
23143;DHT22;11740;51.168;4.112;2023-05-27T12:17:06;23.60;1.00
23143;DHT22;11740;51.168;4.112;2023-05-27T12:19:33;23.80;1.00
23143;DHT22;11740;51.168;4.112;2023-05-27T12:22:01;23.80;1.00
23143;DHT22;11740;51.168;4.112;2023-05-27T12:24:27;24.00;1.00
23143;DHT22;11740;51.168;4.112;2023-05-27T12:26:54;24.20;1.00
23143;DHT22;11740;51.168;4.112;2023-05-27T12:29:21;24.10;1.00
23143;DHT22;11740;51.168;4.112;2023-05-27T12:31:50;24.20;1.00
23143;DHT22;11740;51.168;4.112;2023-05-27T12:34:17;24.30;1.00
23143;DHT22;11740;51.168;4.112;2023-05-27T12:36:44;24.30;1.00
23143;DHT22;11740;51.168;4.112;2023-05-27T12:39:11;24.60;1.00
23143;DHT22;11740;51.168;4.112;2023-05-27T12:41:38;24.70;1.00
23143;DHT22;11740;51.168;4.112;2023-05-27T12:44:05;24.80;1.00
23143;DHT22;11740;51.168;4.112;2023-05-27T12:46:32;24.80;1.00
23143;DHT22;11740;51.168;4.112;2023-05-27T12:48:59;24.90;1.00
23143;DHT22;11740;51.168;4.112;2023-05-27T12:51:26;25.00;1.00
23143;DHT22;11740;51.168;4.112;2023-05-27T12:53:53;25.10;1.00
23143;DHT22;11740;51.168;4.112;2023-05-27T12:56:20;25.30;1.00
23143;DHT22;11740;51.168;4.112;2023-05-27T12:58:48;25.50;1.00
23143;DHT22;11740;51.168;4.112;2023-05-27T13:01:15;25.60;1.00
23143;DHT22;11740;51.168;4.112;2023-05-27T13:03:42;25.70;1.00
23143;DHT22;11740;51.168;4.112;2023-05-27T13:06:09;25.90;1.00
23143;DHT22;11740;51.168;4.112;2023-05-27T13:08:36;26.00;1.00
23143;DHT22;11740;51.168;4.112;2023-05-27T13:11:02;26.20;1.00
23143;DHT22;11740;51.168;4.112;2023-05-27T13:13:29;26.20;1.00
23143;DHT22;11740;51.168;4.112;2023-05-27T13:15:56;26.20;1.00
23143;DHT22;11740;51.168;4.112;2023-05-27T13:18:24;26.30;1.00
23143;DHT22;11740;51.168;4.112;2023-05-27T13:20:51;26.60;1.00
23143;DHT22;11740;51.168;4.112;2023-05-27T13:23:18;26.60;1.00
23143;DHT22;11740;51.168;4.112;2023-05-27T13:25:45;26.80;1.00
23143;DHT22;11740;51.168;4.112;2023-05-27T13:28:12;26.80;1.00
23143;DHT22;11740;51.168;4.112;2023-05-27T13:30:39;26.90;1.00
23143;DHT22;11740;51.168;4.112;2023-05-27T13:33:07;27.00;1.00
23143;DHT22;11740;51.168;4.112;2023-05-27T13:35:34;27.00;1.00
23143;DHT22;11740;51.168;4.112;2023-05-27T13:38:01;27.20;1.00
23143;DHT22;11740;51.168;4.112;2023-05-27T13:40:29;27.20;1.00
23143;DHT22;11740;51.168;4.112;2023-05-27T13:42:56;27.50;1.00
23143;DHT22;11740;51.168;4.112;2023-05-27T13:45:23;27.50;1.00
23143;DHT22;11740;51.168;4.112;2023-05-27T13:47:50;27.80;1.00
23143;DHT22;11740;51.168;4.112;2023-05-27T13:50:17;27.70;1.00
23143;DHT22;11740;51.168;4.112;2023-05-27T13:52:44;27.80;1.00
23143;DHT22;11740;51.168;4.112;2023-05-27T13:55:12;28.00;1.00
23143;DHT22;11740;51.168;4.112;2023-05-27T13:57:39;28.00;1.00
23143;DHT22;11740;51.168;4.112;2023-05-27T14:00:06;28.00;1.00
23143;DHT22;11740;51.168;4.112;2023-05-27T14:02:34;28.30;1.00
23143;DHT22;11740;51.168;4.112;2023-05-27T14:05:01;28.30;1.00
23143;DHT22;11740;51.168;4.112;2023-05-27T14:07:28;28.40;1.00
23143;DHT22;11740;51.168;4.112;2023-05-27T14:09:55;28.60;1.00
23143;DHT22;11740;51.168;4.112;2023-05-27T14:12:23;28.50;1.00
23143;DHT22;11740;51.168;4.112;2023-05-27T14:14:51;28.60;1.00
23143;DHT22;11740;51.168;4.112;2023-05-27T14:17:18;28.60;1.00
23143;DHT22;11740;51.168;4.112;2023-05-27T14:19:45;28.80;1.00
23143;DHT22;11740;51.168;4.112;2023-05-27T14:22:12;29.10;1.00
23143;DHT22;11740;51.168;4.112;2023-05-27T14:24:38;29.20;1.00
23143;DHT22;11740;51.168;4.112;2023-05-27T14:27:05;29.20;1.00
23143;DHT22;11740;51.168;4.112;2023-05-27T14:29:33;29.50;1.00
23143;DHT22;11740;51.168;4.112;2023-05-27T14:32:00;29.40;1.00
23143;DHT22;11740;51.168;4.112;2023-05-27T14:34:27;29.40;1.00
23143;DHT22;11740;51.168;4.112;2023-05-27T14:36:54;29.50;1.00
23143;DHT22;11740;51.168;4.112;2023-05-27T14:39:21;29.60;1.00
23143;DHT22;11740;51.168;4.112;2023-05-27T14:41:48;29.80;1.00
23143;DHT22;11740;51.168;4.112;2023-05-27T14:44:14;30.00;1.00
23143;DHT22;11740;51.168;4.112;2023-05-27T14:46:41;30.20;1.00
23143;DHT22;11740;51.168;4.112;2023-05-27T14:49:08;30.20;1.00
23143;DHT22;11740;51.168;4.112;2023-05-27T14:51:35;30.30;1.00
23143;DHT22;11740;51.168;4.112;2023-05-27T14:54:02;30.50;1.00
23143;DHT22;11740;51.168;4.112;2023-05-27T14:56:29;30.50;1.00
23143;DHT22;11740;51.168;4.112;2023-05-27T14:58:56;30.80;1.00
23143;DHT22;11740;51.168;4.112;2023-05-27T15:01:23;30.80;1.00
23143;DHT22;11740;51.168;4.112;2023-05-27T15:03:50;30.80;1.00
23143;DHT22;11740;51.168;4.112;2023-05-27T15:06:18;30.70;1.00
23143;DHT22;11740;51.168;4.112;2023-05-27T15:08:44;30.60;1.00
23143;DHT22;11740;51.168;4.112;2023-05-27T15:11:11;30.80;1.00
23143;DHT22;11740;51.168;4.112;2023-05-27T15:13:38;31.00;1.00
23143;DHT22;11740;51.168;4.112;2023-05-27T15:16:05;31.00;1.00
23143;DHT22;11740;51.168;4.112;2023-05-27T15:18:32;31.40;1.00
23143;DHT22;11740;51.168;4.112;2023-05-27T15:20:59;31.60;1.00
23143;DHT22;11740;51.168;4.112;2023-05-27T15:23:26;31.40;1.00
23143;DHT22;11740;51.168;4.112;2023-05-27T15:25:52;31.40;1.00
23143;DHT22;11740;51.168;4.112;2023-05-27T15:28:22;31.50;1.00
23143;DHT22;11740;51.168;4.112;2023-05-27T15:30:49;31.50;1.00
23143;DHT22;11740;51.168;4.112;2023-05-27T15:33:18;31.40;1.00
23143;DHT22;11740;51.168;4.112;2023-05-27T15:35:45;31.70;1.00
23143;DHT22;11740;51.168;4.112;2023-05-27T15:38:12;31.70;1.00
23143;DHT22;11740;51.168;4.112;2023-05-27T15:40:40;31.70;1.00
23143;DHT22;11740;51.168;4.112;2023-05-27T15:43:08;32.00;1.00
23143;DHT22;11740;51.168;4.112;2023-05-27T15:45:36;32.40;1.00
23143;DHT22;11740;51.168;4.112;2023-05-27T15:48:21;32.60;1.00
23143;DHT22;11740;51.168;4.112;2023-05-27T15:50:48;32.50;1.00